Longmont, Colorado
Current Conditions -  °F | °C
As of 4:53 AM on Saturday 25 Oct 2014 (Local Time) from KLMO Reporting Station
Clear Clear  
Wind Chill: 38°   Ceiling: Unl
Heat Index: 38°   Visibility: 7mi
Dew Point: 30°   Wind: 3mph
Humidity: 72%   Direction: 210°SSW
Pressure: 30.23"   Gusts: NA
Location:  40.16°N, 105.1°W
Report Text: KLMO 251053Z AUTO 21003KT 7SM CLR 04/M01 A3023 RMK AO2 T00351012
Loading
Personal Weather Stations






























Interactive Weather Map New forecast layout! Learn more

10-Day Weather Forecast

Advertisements
Track Severe Weather on mobile